createdAt,value
2022-07-29T00:00:09.412Z,9.00
2022-07-29T00:02:38.617Z,9.80
2022-07-29T00:05:08.317Z,9.95
2022-07-29T00:07:37.595Z,9.95
2022-07-29T00:10:07.076Z,10.02
2022-07-29T00:12:36.878Z,10.90
2022-07-29T00:15:09.328Z,10.35
2022-07-29T00:17:38.395Z,9.38
2022-07-29T00:20:08.772Z,10.68
2022-07-29T00:22:39.805Z,10.85
2022-07-29T00:25:09.815Z,9.55
2022-07-29T00:27:39.236Z,9.45
2022-07-29T00:30:10.731Z,7.95
2022-07-29T00:32:39.735Z,8.02
2022-07-29T00:38:03.917Z,7.65
2022-07-29T00:40:33.111Z,7.97
2022-07-29T00:43:02.906Z,8.13
2022-07-29T00:45:32.234Z,8.63
2022-07-29T00:48:01.199Z,8.85
2022-07-29T00:50:30.575Z,8.43
2022-07-29T00:52:59.997Z,7.30
2022-07-29T00:55:31.644Z,9.75
2022-07-29T00:58:01.495Z,9.10
2022-07-29T01:00:32.029Z,9.18
2022-07-29T01:03:01.094Z,9.07
2022-07-29T01:05:50.682Z,11.35
2022-07-29T01:08:22.411Z,11.35
2022-07-29T01:10:54.735Z,11.88
2022-07-29T01:13:24.463Z,11.02
2022-07-29T01:16:01.410Z,9.88
2022-07-29T01:18:34.238Z,9.85
2022-07-29T01:21:27.319Z,10.57
2022-07-29T01:24:24.744Z,9.48
2022-07-29T01:27:01.312Z,7.88
2022-07-29T01:29:40.316Z,7.93
2022-07-29T01:32:27.903Z,9.35
2022-07-29T01:35:04.275Z,11.13
2022-07-29T01:37:41.595Z,11.73
2022-07-29T01:40:16.619Z,11.98
2022-07-29T01:42:47.260Z,11.70
2022-07-29T01:45:21.793Z,11.60
2022-07-29T01:47:58.959Z,11.17
2022-07-29T01:50:35.271Z,10.52
2022-07-29T01:53:07.272Z,10.43
2022-07-29T01:55:40.793Z,9.75
2022-07-29T01:58:11.120Z,10.70
2022-07-29T02:00:43.873Z,11.63
2022-07-29T02:03:15.956Z,11.15
2022-07-29T02:05:49.082Z,10.98
2022-07-29T02:08:20.862Z,9.45
2022-07-29T02:10:52.156Z,9.00
2022-07-29T02:13:24.658Z,9.05
2022-07-29T02:15:56.114Z,8.73
2022-07-29T02:18:27.806Z,10.23
2022-07-29T02:20:58.739Z,9.75
2022-07-29T02:23:29.019Z,10.23
2022-07-29T02:26:00.079Z,11.45
2022-07-29T02:28:30.671Z,11.20
2022-07-29T02:31:04.479Z,11.20
2022-07-29T02:33:34.991Z,10.05
2022-07-29T02:36:05.076Z,10.15
2022-07-29T02:38:58.488Z,10.02
2022-07-29T02:41:31.118Z,9.90
2022-07-29T02:44:06.421Z,10.35
2022-07-29T02:46:38.951Z,9.93
2022-07-29T02:49:14.869Z,9.18
2022-07-29T02:51:47.512Z,10.25
2022-07-29T02:54:24.939Z,9.95
2022-07-29T02:56:56.630Z,11.23
2022-07-29T02:59:29.774Z,11.32
2022-07-29T03:02:01.333Z,11.15
2022-07-29T03:04:33.037Z,9.77
2022-07-29T03:07:04.057Z,10.25
2022-07-29T03:09:33.999Z,9.35
2022-07-29T03:12:03.803Z,9.15
2022-07-29T03:14:33.626Z,9.43
2022-07-29T03:17:05.407Z,9.40
2022-07-29T03:19:35.323Z,8.77
2022-07-29T03:22:04.791Z,9.93
2022-07-29T03:24:35.069Z,10.15
2022-07-29T03:27:05.246Z,10.30
2022-07-29T03:29:34.861Z,10.88
2022-07-29T03:32:08.877Z,11.15
2022-07-29T03:34:39.553Z,10.48
2022-07-29T03:37:09.153Z,10.93
2022-07-29T03:39:42.792Z,11.40
2022-07-29T03:42:15.930Z,10.68
2022-07-29T03:44:48.069Z,10.98
2022-07-29T03:47:21.484Z,14.93
2022-07-29T03:49:54.782Z,12.55
2022-07-29T03:52:24.114Z,10.23
2022-07-29T03:54:53.296Z,10.57
2022-07-29T03:57:26.099Z,11.20
2022-07-29T03:59:56.096Z,9.85
2022-07-29T04:02:30.724Z,11.25
2022-07-29T04:05:00.331Z,10.82
2022-07-29T04:07:30.174Z,10.63
2022-07-29T04:09:59.277Z,10.73
2022-07-29T04:12:28.245Z,11.10
2022-07-29T04:14:57.222Z,13.35
2022-07-29T04:17:27.550Z,12.35
2022-07-29T04:19:56.561Z,11.43
2022-07-29T04:22:25.555Z,11.70
2022-07-29T04:24:59.098Z,13.20
2022-07-29T04:27:32.494Z,13.85
2022-07-29T04:30:01.631Z,13.23
2022-07-29T04:32:32.319Z,12.50
2022-07-29T04:35:01.440Z,12.65
2022-07-29T04:37:30.371Z,10.57
2022-07-29T04:39:59.360Z,9.45
2022-07-29T04:42:29.271Z,9.40
2022-07-29T04:44:58.579Z,10.95
2022-07-29T04:47:31.804Z,10.45
2022-07-29T04:50:00.871Z,9.90
2022-07-29T04:52:29.799Z,10.02
2022-07-29T04:54:58.754Z,8.73
2022-07-29T04:57:27.757Z,9.10
2022-07-29T04:59:56.698Z,8.98
2022-07-29T05:02:25.710Z,7.95
2022-07-29T05:04:56.073Z,7.43
2022-07-29T05:07:25.038Z,7.22
2022-07-29T05:09:54.243Z,8.00
2022-07-29T05:12:23.301Z,7.95
2022-07-29T05:14:52.250Z,7.65
2022-07-29T05:17:21.313Z,8.52
2022-07-29T05:19:52.276Z,7.93
2022-07-29T05:22:23.386Z,7.80
2022-07-29T05:24:52.361Z,8.00
2022-07-29T05:27:21.270Z,7.57
2022-07-29T05:29:50.291Z,7.07
2022-07-29T05:32:19.230Z,8.23
2022-07-29T05:34:51.024Z,6.85
2022-07-29T05:37:22.740Z,7.30
2022-07-29T05:39:56.532Z,6.95
2022-07-29T05:42:26.557Z,6.65
2022-07-29T05:44:55.684Z,6.93
2022-07-29T05:47:25.311Z,7.45
2022-07-29T05:49:55.066Z,8.13
2022-07-29T05:52:25.750Z,8.50
2022-07-29T05:54:54.735Z,8.07
2022-07-29T05:57:25.267Z,8.48
2022-07-29T05:59:54.295Z,8.15
2022-07-29T06:02:23.321Z,7.50
2022-07-29T06:04:52.375Z,7.35
2022-07-29T06:07:21.336Z,7.95
2022-07-29T06:09:51.766Z,7.30
2022-07-29T06:12:21.003Z,7.60
2022-07-29T06:14:53.980Z,6.95
2022-07-29T06:17:23.363Z,7.93
2022-07-29T06:19:52.446Z,7.10
2022-07-29T06:22:21.507Z,8.10
2022-07-29T06:24:52.160Z,7.93
2022-07-29T06:27:21.106Z,7.85
2022-07-29T06:29:50.094Z,9.15
2022-07-29T06:32:20.170Z,8.48
2022-07-29T06:34:52.370Z,8.73
2022-07-29T06:37:21.715Z,9.07
2022-07-29T06:40:13.293Z,8.30
2022-07-29T06:42:44.739Z,8.60
2022-07-29T06:45:14.234Z,8.23
2022-07-29T06:47:43.153Z,7.70
2022-07-29T06:50:13.507Z,7.10
2022-07-29T06:52:42.986Z,8.60
2022-07-29T06:55:13.454Z,7.78
2022-07-29T06:57:54.476Z,8.02
2022-07-29T07:00:23.566Z,7.50
2022-07-29T07:02:52.641Z,6.28
2022-07-29T07:05:21.740Z,5.57
2022-07-29T07:07:50.707Z,6.70
2022-07-29T07:10:21.253Z,5.88
2022-07-29T07:12:50.481Z,6.55
2022-07-29T07:15:22.838Z,6.32
2022-07-29T07:18:08.334Z,6.55
2022-07-29T07:20:38.518Z,5.78
2022-07-29T07:23:07.549Z,6.25
2022-07-29T07:25:37.962Z,6.05
2022-07-29T07:28:08.217Z,6.47
2022-07-29T07:30:37.418Z,6.60
2022-07-29T07:33:06.814Z,6.95
2022-07-29T07:35:35.947Z,6.00
2022-07-29T07:38:06.941Z,5.78
2022-07-29T07:40:37.329Z,6.72
2022-07-29T07:43:06.483Z,6.25
2022-07-29T07:45:35.482Z,5.35
2022-07-29T07:48:04.592Z,5.75
2022-07-29T07:50:33.502Z,5.88
2022-07-29T07:53:03.256Z,5.60
2022-07-29T07:55:53.441Z,5.82
2022-07-29T07:58:23.137Z,5.72
2022-07-29T08:00:52.349Z,5.47
2022-07-29T08:03:21.307Z,5.53
2022-07-29T08:05:52.090Z,5.38
2022-07-29T08:08:21.135Z,5.70
2022-07-29T08:10:57.057Z,5.47
2022-07-29T08:13:31.139Z,5.85
2022-07-29T08:16:02.206Z,5.25
2022-07-29T08:18:32.995Z,5.65
2022-07-29T08:21:02.131Z,5.03
2022-07-29T08:23:45.488Z,5.00
2022-07-29T08:26:15.617Z,4.78
2022-07-29T08:28:47.320Z,5.13
2022-07-29T08:31:16.636Z,5.10
2022-07-29T08:33:45.910Z,4.90
2022-07-29T08:36:15.346Z,4.30
2022-07-29T08:38:44.262Z,4.75
2022-07-29T08:41:13.299Z,4.53
2022-07-29T08:43:42.912Z,5.13
2022-07-29T08:46:13.365Z,4.93
2022-07-29T08:48:43.543Z,4.63
2022-07-29T08:51:17.124Z,4.35
2022-07-29T08:53:48.478Z,4.43
2022-07-29T08:56:19.136Z,4.53
2022-07-29T08:58:52.043Z,5.05
2022-07-29T09:01:34.960Z,4.45
2022-07-29T09:04:08.228Z,3.90
2022-07-29T09:06:41.489Z,3.92
2022-07-29T09:09:10.876Z,3.90
2022-07-29T09:11:39.916Z,4.15
2022-07-29T09:14:09.383Z,3.95
2022-07-29T09:17:01.002Z,3.67
2022-07-29T09:19:32.638Z,4.10
2022-07-29T09:22:04.077Z,4.20
2022-07-29T09:24:41.842Z,4.22
2022-07-29T09:27:22.810Z,4.75
2022-07-29T09:29:59.718Z,3.97
2022-07-29T09:32:30.662Z,4.15
2022-07-29T09:35:20.211Z,4.85
2022-07-29T09:37:50.183Z,4.00
2022-07-29T09:40:21.590Z,4.13
2022-07-29T09:42:59.361Z,3.95
2022-07-29T09:45:31.089Z,3.65
2022-07-29T09:48:14.768Z,4.05
2022-07-29T09:50:45.898Z,3.53
2022-07-29T09:53:33.511Z,3.70
2022-07-29T09:56:02.843Z,3.60
2022-07-29T09:58:31.822Z,3.97
2022-07-29T10:01:00.921Z,3.88
2022-07-29T10:03:31.385Z,3.92
2022-07-29T10:06:11.867Z,4.40
2022-07-29T10:08:40.909Z,4.55
2022-07-29T10:11:14.515Z,3.85
2022-07-29T10:13:44.802Z,4.32
2022-07-29T10:16:15.010Z,4.00
2022-07-29T10:18:47.885Z,3.95
2022-07-29T10:21:35.197Z,4.30
2022-07-29T10:24:07.105Z,4.05
2022-07-29T10:26:45.762Z,4.25
2022-07-29T10:29:15.109Z,4.10
2022-07-29T10:31:52.307Z,4.07
2022-07-29T10:34:31.942Z,4.00
2022-07-29T10:37:10.858Z,4.15
2022-07-29T10:39:55.337Z,3.90
2022-07-29T10:42:34.057Z,3.60
2022-07-29T10:45:05.846Z,4.25
2022-07-29T10:47:35.520Z,3.47
2022-07-29T10:50:07.713Z,4.00
2022-07-29T10:52:57.678Z,4.40
2022-07-29T10:55:37.782Z,3.42
2022-07-29T10:58:18.954Z,3.55
2022-07-29T11:00:49.690Z,3.70
2022-07-29T11:03:50.391Z,3.88
2022-07-29T11:09:25.806Z,3.40
2022-07-29T11:12:04.589Z,3.78
2022-07-29T11:15:00.329Z,3.97
2022-07-29T11:17:46.997Z,3.60
2022-07-29T11:20:37.762Z,4.20
2022-07-29T11:23:27.516Z,3.60
2022-07-29T11:26:18.609Z,3.85
2022-07-29T11:29:00.955Z,3.70
2022-07-29T11:31:42.776Z,3.53
2022-07-29T11:34:23.232Z,3.90
2022-07-29T11:39:50.948Z,3.72
2022-07-29T11:42:44.602Z,3.85
2022-07-29T11:45:44.461Z,3.88
2022-07-29T11:48:31.410Z,3.88
2022-07-29T11:50:58.288Z,3.70
2022-07-29T11:53:29.216Z,3.47
2022-07-29T11:56:03.776Z,3.80
2022-07-29T11:58:33.739Z,4.13
2022-07-29T12:01:04.932Z,3.92
2022-07-29T12:03:36.984Z,3.90
2022-07-29T12:06:15.053Z,3.97
2022-07-29T12:08:45.396Z,3.78
2022-07-29T12:11:21.633Z,3.95
2022-07-29T12:13:51.623Z,3.90
2022-07-29T12:16:26.080Z,4.20
2022-07-29T12:18:59.940Z,3.85
2022-07-29T12:21:29.483Z,4.07
2022-07-29T12:24:05.821Z,3.88
2022-07-29T12:26:51.999Z,3.85
2022-07-29T12:29:33.927Z,4.32
2022-07-29T12:32:14.921Z,3.78
2022-07-29T12:34:49.006Z,4.20
2022-07-29T12:37:18.278Z,4.20
2022-07-29T12:39:47.380Z,4.10
2022-07-29T12:42:19.184Z,4.07
2022-07-29T12:44:49.660Z,4.45
2022-07-29T12:47:20.285Z,3.88
2022-07-29T12:49:50.416Z,4.00
2022-07-29T12:52:26.615Z,4.10
2022-07-29T12:54:56.074Z,4.32
2022-07-29T12:57:26.952Z,3.67
2022-07-29T13:00:11.685Z,4.00
2022-07-29T13:02:42.479Z,3.73
2022-07-29T13:05:13.721Z,3.95
2022-07-29T13:07:54.964Z,4.00
2022-07-29T13:10:26.985Z,3.38
2022-07-29T13:13:09.210Z,4.30
2022-07-29T13:15:39.165Z,3.67
2022-07-29T13:18:28.772Z,4.60
2022-07-29T13:20:58.712Z,3.70
2022-07-29T13:23:27.713Z,3.90
2022-07-29T13:25:56.848Z,3.50
2022-07-29T13:28:27.319Z,3.80
2022-07-29T13:30:56.501Z,3.80
2022-07-29T13:33:25.490Z,3.30
2022-07-29T13:35:54.622Z,3.35
2022-07-29T13:38:23.648Z,3.65
2022-07-29T13:41:00.376Z,4.20
2022-07-29T13:43:30.752Z,3.38
2022-07-29T13:45:59.780Z,3.80
2022-07-29T13:48:28.799Z,3.83
2022-07-29T13:50:58.968Z,3.42
2022-07-29T13:53:28.951Z,4.05
2022-07-29T13:55:58.057Z,3.72
2022-07-29T13:58:26.970Z,3.60
2022-07-29T14:00:58.162Z,3.90
2022-07-29T14:03:27.357Z,3.42
2022-07-29T14:05:57.329Z,3.60
2022-07-29T14:08:26.362Z,3.60
2022-07-29T14:10:55.293Z,3.42
2022-07-29T14:13:26.363Z,3.38
2022-07-29T14:15:55.567Z,3.83
2022-07-29T14:18:25.927Z,3.75
2022-07-29T14:20:55.098Z,4.05
2022-07-29T14:23:24.262Z,3.83
2022-07-29T14:25:55.468Z,4.22
2022-07-29T14:28:24.987Z,3.60
2022-07-29T14:30:54.054Z,3.50
2022-07-29T14:33:22.982Z,3.70
2022-07-29T14:35:53.413Z,4.22
2022-07-29T14:38:22.369Z,3.88
2022-07-29T14:40:56.074Z,3.83
2022-07-29T14:43:25.043Z,3.92
2022-07-29T14:45:57.269Z,3.60
2022-07-29T14:48:30.533Z,3.80
2022-07-29T14:51:04.554Z,4.20
2022-07-29T14:53:34.438Z,3.60
2022-07-29T14:56:33.921Z,4.20
2022-07-29T14:58:52.514Z,3.88
2022-07-29T15:01:21.515Z,3.50
2022-07-29T15:03:51.545Z,5.18
2022-07-29T15:06:21.895Z,3.55
2022-07-29T15:08:50.919Z,6.28
2022-07-29T15:11:19.957Z,4.55
2022-07-29T15:13:49.270Z,5.07
2022-07-29T15:16:18.283Z,3.80
2022-07-29T15:18:47.280Z,4.15
2022-07-29T15:21:16.520Z,6.50
2022-07-29T15:23:47.213Z,5.78
2022-07-29T15:26:16.448Z,7.70
2022-07-29T15:28:45.396Z,5.72
2022-07-29T15:31:15.028Z,8.52
2022-07-29T15:33:43.984Z,5.53
2022-07-29T15:36:25.412Z,6.63
2022-07-29T15:39:03.921Z,5.07
2022-07-29T15:41:33.133Z,5.25
2022-07-29T15:44:02.097Z,4.90
2022-07-29T15:46:48.957Z,4.93
2022-07-29T15:49:17.980Z,4.40
2022-07-29T15:51:46.948Z,4.53
2022-07-29T15:54:17.710Z,4.70
2022-07-29T15:56:46.654Z,5.47
2022-07-29T15:59:22.488Z,5.40
2022-07-29T16:01:51.750Z,6.57
2022-07-29T16:04:21.213Z,5.60
2022-07-29T16:06:50.907Z,5.60
2022-07-29T16:09:21.677Z,5.22
2022-07-29T16:11:51.105Z,5.47
2022-07-29T16:14:20.352Z,5.07
2022-07-29T16:16:49.573Z,4.88
2022-07-29T16:19:18.559Z,4.10
2022-07-29T16:21:47.576Z,4.40
2022-07-29T16:24:16.715Z,4.47
2022-07-29T16:26:47.283Z,3.85
2022-07-29T16:29:18.222Z,4.45
2022-07-29T16:31:47.340Z,3.95
2022-07-29T16:34:16.351Z,3.70
2022-07-29T16:36:47.881Z,3.80
2022-07-29T16:39:17.118Z,3.78
2022-07-29T16:41:47.575Z,4.10
2022-07-29T16:44:16.550Z,3.92
2022-07-29T16:46:47.210Z,3.75
2022-07-29T16:49:19.445Z,3.75
2022-07-29T16:51:48.962Z,3.67
2022-07-29T16:54:18.360Z,4.47
2022-07-29T16:56:48.767Z,4.00
2022-07-29T16:59:17.815Z,4.18
2022-07-29T17:01:46.875Z,3.63
2022-07-29T17:04:16.330Z,3.78
2022-07-29T17:06:45.253Z,3.67
2022-07-29T17:09:16.099Z,3.70
2022-07-29T17:11:53.833Z,3.90
2022-07-29T17:14:27.364Z,3.45
2022-07-29T17:17:00.592Z,3.67
2022-07-29T17:19:32.295Z,4.07
2022-07-29T17:22:09.414Z,3.70
2022-07-29T17:24:41.212Z,4.20
2022-07-29T17:27:10.485Z,4.47
2022-07-29T17:29:40.939Z,4.82
2022-07-29T17:32:11.340Z,5.57
2022-07-29T17:34:41.683Z,5.03
2022-07-29T17:37:12.333Z,4.90
2022-07-29T17:39:42.570Z,4.80
2022-07-29T17:42:13.331Z,4.70
2022-07-29T17:44:43.751Z,5.93
2022-07-29T17:47:15.842Z,5.10
2022-07-29T17:49:45.566Z,4.97
2022-07-29T17:52:15.967Z,5.45
2022-07-29T17:54:44.925Z,4.78
2022-07-29T17:57:14.039Z,5.07
2022-07-29T17:59:44.481Z,4.60
2022-07-29T18:02:14.505Z,5.63
2022-07-29T18:04:43.683Z,6.65
2022-07-29T18:07:12.741Z,7.03
2022-07-29T18:09:41.797Z,5.78
2022-07-29T18:12:11.585Z,4.78
2022-07-29T18:14:40.660Z,4.78
2022-07-29T18:17:11.022Z,4.97
2022-07-29T18:19:40.106Z,4.38
2022-07-29T18:22:11.504Z,12.40
2022-07-29T18:24:40.585Z,4.72
2022-07-29T18:27:09.945Z,4.75
2022-07-29T18:29:38.975Z,4.85
2022-07-29T18:32:08.384Z,5.22
2022-07-29T18:34:38.693Z,4.72
2022-07-29T18:37:07.866Z,4.88
2022-07-29T18:39:36.860Z,4.15
2022-07-29T18:42:06.286Z,5.18
2022-07-29T18:44:41.585Z,4.63
2022-07-29T18:47:13.000Z,5.13
2022-07-29T18:49:43.729Z,4.85
2022-07-29T18:52:12.732Z,4.75
2022-07-29T18:54:41.778Z,4.97
2022-07-29T18:57:56.034Z,5.75
2022-07-29T18:59:59.969Z,5.50
2022-07-29T19:02:29.318Z,4.63
2022-07-29T19:05:00.115Z,5.20
2022-07-29T19:07:30.038Z,5.35
2022-07-29T19:09:58.938Z,4.88
2022-07-29T19:12:27.995Z,5.38
2022-07-29T19:14:56.989Z,4.88
2022-07-29T19:17:26.118Z,4.95
2022-07-29T19:19:55.111Z,5.65
2022-07-29T19:22:25.692Z,4.60
2022-07-29T19:24:54.822Z,5.35
2022-07-29T19:27:24.074Z,4.88
2022-07-29T19:29:55.803Z,4.53
2022-07-29T19:35:14.490Z,5.20
2022-07-29T19:37:44.928Z,4.85
2022-07-29T19:40:14.124Z,5.13
2022-07-29T19:42:43.224Z,5.70
2022-07-29T19:45:13.053Z,5.20
2022-07-29T19:47:42.014Z,5.30
2022-07-29T19:50:11.756Z,5.03
2022-07-29T19:52:40.750Z,6.53
2022-07-29T19:55:12.099Z,5.07
2022-07-29T19:57:41.964Z,5.25
2022-07-29T20:00:12.285Z,5.25
2022-07-29T20:02:42.876Z,4.78
2022-07-29T20:05:12.796Z,5.53
2022-07-29T20:07:41.768Z,5.30
2022-07-29T20:10:12.775Z,4.95
2022-07-29T20:12:42.775Z,5.18
2022-07-29T20:15:16.327Z,5.93
2022-07-29T20:17:45.792Z,5.18
2022-07-29T20:20:14.719Z,5.18
2022-07-29T20:22:44.376Z,5.30
2022-07-29T20:25:15.508Z,4.90
2022-07-29T20:27:44.780Z,4.68
2022-07-29T20:30:14.512Z,5.05
2022-07-29T20:32:43.623Z,4.60
2022-07-29T20:35:13.493Z,4.90
2022-07-29T20:37:55.928Z,4.65
2022-07-29T20:40:27.646Z,4.35
2022-07-29T20:42:57.075Z,4.63
2022-07-29T20:45:26.321Z,4.60
2022-07-29T20:47:55.338Z,4.63
2022-07-29T20:50:24.886Z,4.53
2022-07-29T20:52:54.057Z,4.78
2022-07-29T20:55:23.041Z,4.45
2022-07-29T20:57:53.538Z,4.30
2022-07-29T21:00:22.615Z,4.63
2022-07-29T21:02:51.790Z,4.55
2022-07-29T21:05:21.031Z,4.60
2022-07-29T21:07:49.965Z,4.82
2022-07-29T21:10:19.075Z,5.13
2022-07-29T21:12:48.153Z,4.72
2022-07-29T21:15:20.828Z,5.10
2022-07-29T21:17:52.030Z,4.88
2022-07-29T21:20:21.209Z,4.63
2022-07-29T21:22:56.607Z,4.92
2022-07-29T21:25:27.041Z,4.68
2022-07-29T21:28:13.623Z,4.97
2022-07-29T21:30:44.050Z,4.97
2022-07-29T21:33:13.104Z,4.57
2022-07-29T21:36:06.270Z,4.90
2022-07-29T21:38:32.326Z,4.57
2022-07-29T21:41:01.324Z,4.82
2022-07-29T21:43:30.434Z,4.60
2022-07-29T21:46:01.240Z,4.95
2022-07-29T21:48:30.627Z,4.95
2022-07-29T21:50:59.796Z,3.88
2022-07-29T21:53:29.017Z,4.97
2022-07-29T21:55:59.879Z,4.70
2022-07-29T21:58:28.779Z,3.95
2022-07-29T22:00:57.999Z,4.38
2022-07-29T22:03:28.569Z,4.20
2022-07-29T22:05:57.569Z,4.03
2022-07-29T22:08:26.589Z,4.60
2022-07-29T22:10:55.595Z,4.60
2022-07-29T22:13:24.524Z,5.22
2022-07-29T22:15:53.643Z,4.80
2022-07-29T22:18:22.545Z,4.40
2022-07-29T22:20:52.937Z,4.65
2022-07-29T22:23:22.032Z,4.05
2022-07-29T22:25:51.076Z,4.32
2022-07-29T22:28:20.302Z,4.50
2022-07-29T22:30:49.378Z,4.25
2022-07-29T22:33:18.435Z,4.60
2022-07-29T22:35:49.028Z,4.63
2022-07-29T22:38:19.656Z,4.43
2022-07-29T22:40:50.656Z,4.80
2022-07-29T22:43:19.991Z,4.60
2022-07-29T22:45:49.047Z,4.57
2022-07-29T22:48:18.151Z,4.60
2022-07-29T22:50:47.082Z,4.95
2022-07-29T22:53:16.143Z,5.03
2022-07-29T22:55:46.621Z,4.30
2022-07-29T22:58:15.717Z,4.70
2022-07-29T23:00:44.630Z,4.30
2022-07-29T23:03:13.784Z,4.57
2022-07-29T23:05:42.790Z,4.43
2022-07-29T23:08:11.779Z,5.15
2022-07-29T23:10:40.907Z,4.60
2022-07-29T23:13:11.760Z,4.95
2022-07-29T23:15:40.830Z,4.65
2022-07-29T23:18:09.863Z,5.53
2022-07-29T23:20:38.897Z,4.57
2022-07-29T23:23:07.866Z,5.10
2022-07-29T23:25:37.117Z,5.13
2022-07-29T23:28:06.443Z,4.53
2022-07-29T23:30:42.270Z,4.68
2022-07-29T23:33:11.309Z,5.20
2022-07-29T23:35:40.251Z,4.97
2022-07-29T23:38:09.400Z,5.38
2022-07-29T23:40:38.440Z,5.38
2022-07-29T23:43:09.009Z,5.63
2022-07-29T23:45:42.669Z,5.20
2022-07-29T23:48:15.793Z,5.18
2022-07-29T23:50:44.847Z,5.00
2022-07-29T23:53:13.887Z,6.00
2022-07-29T23:55:42.976Z,5.68
2022-07-29T23:58:12.085Z,4.88
